Observation data for Seagraves on 12/14/2019      Previous  Date       Current Mesonet Observations  Soil Data  Daily Summary Page  Observations in Plain Language
KSGV 140600Z 29004KT 06/M04 A2994 RMK A01 T00591035  RH  051%=      5-min Rain = 0
KSGV 140605Z 28004KT 06/M04 A2994 RMK A01 T00581036  RH  051%=      5-min Rain = 0
KSGV 140610Z 29004KT 06/M04 A2994 RMK A01 T00561036  RH  052%=      5-min Rain = 0
KSGV 140615Z 31005KT 06/M04 A2994 RMK A01 T00561035  RH  052%=      5-min Rain = 0
KSGV 140620Z 32006KT 05/M03 A2994 RMK A01 T00531034  RH  054%=      5-min Rain = 0
KSGV 140625Z 32007KT 06/M03 A2994 RMK A01 T00551030  RH  054%=      5-min Rain = 0
KSGV 140630Z 33007KT 06/M03 A2994 RMK A01 T00571029  RH  054%=      5-min Rain = 0
KSGV 140635Z 33006KT 06/M03 A2994 RMK A01 T00561029  RH  055%=      5-min Rain = 0
KSGV 140640Z 32008KT 06/M03 A2994 RMK A01 T00621028  RH  053%=      5-min Rain = 0
KSGV 140645Z 32009KT 07/M03 A2993 RMK A01 T00701028  RH  050%=      5-min Rain = 0
KSGV 140650Z 32009KT 07/M03 A2993 RMK A01 T00731028  RH  049%=      5-min Rain = 0
KSGV 140655Z 32008KT 07/M03 A2993 RMK A01 T00721029  RH  049%=      5-min Rain = 0
KSGV 140700Z 33008KT 07/M03 A2993 RMK A01 T00711028  RH  049%=      5-min Rain = 0
KSGV 140705Z 33008KT 07/M03 A2992 RMK A01 T00741029  RH  049%=      5-min Rain = 0
KSGV 140710Z 32006KT 07/M03 A2993 RMK A01 T00721030  RH  049%=      5-min Rain = 0
KSGV 140715Z 29005KT 07/M03 A2993 RMK A01 T00671031  RH  050%=      5-min Rain = 0
KSGV 140720Z 26006KT 06/M03 A2993 RMK A01 T00641032  RH  050%=      5-min Rain = 0
KSGV 140725Z 23006KT 05/M03 A2994 RMK A01 T00531031  RH  055%=      5-min Rain = 0
KSGV 140730Z 23007KT 05/M03 A2994 RMK A01 T00491031  RH  056%=      5-min Rain = 0
KSGV 140735Z 26006KT 05/M03 A2994 RMK A01 T00491031  RH  057%=      5-min Rain = 0
KSGV 140740Z 26006KT 05/M03 A2993 RMK A01 T00521031  RH  055%=      5-min Rain = 0
KSGV 140745Z 26006KT 05/M03 A2993 RMK A01 T00521032  RH  055%=      5-min Rain = 0
KSGV 140750Z 29006KT 05/M03 A2992 RMK A01 T00511030  RH  056%=      5-min Rain = 0
KSGV 140755Z 25005KT 05/M03 A2993 RMK A01 T00461032  RH  057%=      5-min Rain = 0
KSGV 140800Z 25006KT 05/M03 A2993 RMK A01 T00451031  RH  058%=      5-min Rain = 0
KSGV 140805Z 24006KT 05/M03 A2993 RMK A01 T00461031  RH  058%=      5-min Rain = 0
KSGV 140810Z 26004KT 04/M03 A2993 RMK A01 T00441031  RH  059%=      5-min Rain = 0
KSGV 140815Z 25005KT 04/M03 A2993 RMK A01 T00421032  RH  059%=      5-min Rain = 0
KSGV 140820Z 26005KT 04/M03 A2992 RMK A01 T00401030  RH  060%=      5-min Rain = 0
KSGV 140825Z 27006KT 04/M03 A2992 RMK A01 T00401030  RH  060%=      5-min Rain = 0
KSGV 140830Z 28005KT 04/M03 A2992 RMK A01 T00381029  RH  062%=      5-min Rain = 0
KSGV 140835Z 26004KT 04/M03 A2992 RMK A01 T00351031  RH  063%=      5-min Rain = 0
KSGV 140840Z 27004KT 04/M03 A2991 RMK A01 T00371030  RH  062%=      5-min Rain = 0
KSGV 140845Z 28004KT 04/M03 A2991 RMK A01 T00391030  RH  061%=      5-min Rain = 0
KSGV 140850Z 27003KT 04/M03 A2991 RMK A01 T00391030  RH  061%=      5-min Rain = 0
KSGV 140855Z 28003KT 04/M03 A2991 RMK A01 T00371030  RH  062%=      5-min Rain = 0
KSGV 140900Z 26002KT 04/M03 A2991 RMK A01 T00371031  RH  062%=      5-min Rain = 0
KSGV 140905Z 26002KT 04/M03 A2991 RMK A01 T00371031  RH  062%=      5-min Rain = 0
KSGV 140910Z 27003KT 03/M03 A299 RMK A01 T00341032  RH  062%=      5-min Rain = 0
KSGV 140915Z 27004KT 03/M03 A299 RMK A01 T00331032  RH  063%=      5-min Rain = 0
KSGV 140920Z 29004KT 03/M03 A299 RMK A01 T00331031  RH  063%=      5-min Rain = 0
KSGV 140925Z 29004KT 03/M03 A299 RMK A01 T00281032  RH  065%=      5-min Rain = 0
KSGV 140930Z 30004KT 02/M03 A299 RMK A01 T00241032  RH  067%=      5-min Rain = 0
KSGV 140935Z 30004KT 02/M03 A299 RMK A01 T00211032  RH  068%=      5-min Rain = 0
KSGV 140940Z 30004KT 02/M03 A2989 RMK A01 T00201032  RH  069%=      5-min Rain = 0
KSGV 140945Z 30004KT 02/M03 A2989 RMK A01 T00181032  RH  070%=      5-min Rain = 0
KSGV 140950Z 31004KT 02/M03 A2989 RMK A01 T00181032  RH  070%=      5-min Rain = 0
KSGV 140955Z 31005KT 02/M03 A2989 RMK A01 T00201032  RH  069%=      5-min Rain = 0
KSGV 141000Z 31005KT 02/M03 A2989 RMK A01 T00161031  RH  072%=      5-min Rain = 0
KSGV 141005Z 32004KT 02/M03 A2989 RMK A01 T00171030  RH  071%=      5-min Rain = 0
KSGV 141010Z 31005KT 02/M03 A2989 RMK A01 T00191031  RH  070%=      5-min Rain = 0
KSGV 141015Z 31004KT 01/M03 A2989 RMK A01 T00131033  RH  072%=      5-min Rain = 0
KSGV 141020Z 30004KT 01/M03 A2988 RMK A01 T00121031  RH  073%=      5-min Rain = 0
KSGV 141025Z 30005KT 01/M03 A2988 RMK A01 T00131031  RH  073%=      5-min Rain = 0
KSGV 141030Z 30005KT 01/M03 A2988 RMK A01 T00121032  RH  073%=      5-min Rain = 0
KSGV 141035Z 31004KT 01/M03 A2988 RMK A01 T00131031  RH  073%=      5-min Rain = 0
KSGV 141040Z 32005KT 01/M03 A2988 RMK A01 T00141031  RH  073%=      5-min Rain = 0
KSGV 141045Z 32004KT 01/M03 A2988 RMK A01 T00141031  RH  072%=      5-min Rain = 0
KSGV 141050Z 32004KT 02/M03 A2987 RMK A01 T00161030  RH  072%=      5-min Rain = 0
KSGV 141055Z 32004KT 02/M03 A2988 RMK A01 T00181030  RH  071%=      5-min Rain = 0
KSGV 141100Z 32004KT 01/M03 A2987 RMK A01 T00141031  RH  072%=      5-min Rain = 0
KSGV 141105Z 32005KT 01/M03 A2987 RMK A01 T00131031  RH  073%=      5-min Rain = 0
KSGV 141110Z 33006KT 01/M03 A2987 RMK A01 T00081032  RH  075%=      5-min Rain = 0
KSGV 141115Z 34006KT 01/M03 A2987 RMK A01 T00071031  RH  076%=      5-min Rain = 0
KSGV 141120Z 33005KT 01/M03 A2987 RMK A01 T00081031  RH  075%=      5-min Rain = 0
KSGV 141125Z 32004KT 01/M03 A2987 RMK A01 T00081032  RH  075%=      5-min Rain = 0
KSGV 141130Z 33004KT 01/M03 A2987 RMK A01 T00061034  RH  075%=      5-min Rain = 0
KSGV 141135Z 32004KT 01/M04 A2987 RMK A01 T00051035  RH  075%=      5-min Rain = 0
KSGV 141140Z 35004KT 01/M03 A2987 RMK A01 T00051033  RH  076%=      5-min Rain = 0
KSGV 141145Z 33005KT 01/M03 A2986 RMK A01 T00121032  RH  073%=      5-min Rain = 0
KSGV 141150Z 33005KT 01/M03 A2986 RMK A01 T00141033  RH  071%=      5-min Rain = 0
KSGV 141155Z 34005KT 01/M03 A2987 RMK A01 T00121034  RH  072%=      5-min Rain = 0
KSGV 141200Z 35006KT 02/M03 A2987 RMK A01 T00161033  RH  070%=      5-min Rain = 0
KSGV 141205Z 35006KT 02/M03 A2986 RMK A01 T00191031  RH  070%=      5-min Rain = 0
KSGV 141210Z 00006KT 03/M03 A2986 RMK A01 T00311030  RH  065%=      5-min Rain = 0
KSGV 141215Z 01006KT 04/M03 A2986 RMK A01 T00401032  RH  060%=      5-min Rain = 0
KSGV 141220Z 00007KT 04/M03 A2986 RMK A01 T00431032  RH  058%=      5-min Rain = 0
KSGV 141225Z 01006KT 04/M03 A2986 RMK A01 T00441033  RH  058%=      5-min Rain = 0
KSGV 141230Z 01007KT 04/M03 A2986 RMK A01 T00421034  RH  058%=      5-min Rain = 0
KSGV 141235Z 01007KT 04/M03 A2986 RMK A01 T00381034  RH  059%=      5-min Rain = 0
KSGV 141240Z 01006KT 03/M04 A2986 RMK A01 T00341035  RH  061%=      5-min Rain = 0
KSGV 141245Z 02006KT 03/M04 A2986 RMK A01 T00321035  RH  062%=      5-min Rain = 0
KSGV 141250Z 02006KT 03/M04 A2986 RMK A01 T00311036  RH  062%=      5-min Rain = 0
KSGV 141255Z 01006KT 03/M04 A2986 RMK A01 T00301036  RH  062%=      5-min Rain = 0
KSGV 141300Z 02005KT 03/M04 A2986 RMK A01 T00291036  RH  063%=      5-min Rain = 0
KSGV 141305Z 02004KT 03/M04 A2986 RMK A01 T00291036  RH  062%=      5-min Rain = 0
KSGV 141310Z 02004KT 03/M04 A2986 RMK A01 T00281037  RH  063%=      5-min Rain = 0
KSGV 141315Z 02005KT 03/M04 A2986 RMK A01 T00271037  RH  063%=      5-min Rain = 0
KSGV 141320Z 02005KT 03/M04 A2986 RMK A01 T00261036  RH  064%=      5-min Rain = 0
KSGV 141325Z 02005KT 02/M04 A2986 RMK A01 T00241036  RH  065%=      5-min Rain = 0
KSGV 141330Z 02006KT 02/M04 A2986 RMK A01 T00231036  RH  065%=      5-min Rain = 0
KSGV 141335Z 01006KT 03/M04 A2986 RMK A01 T00251036  RH  065%=      5-min Rain = 0
KSGV 141340Z 01005KT 02/M04 A2987 RMK A01 T00221035  RH  066%=      5-min Rain = 0
KSGV 141345Z 01006KT 02/M04 A2987 RMK A01 T00191035  RH  068%=      5-min Rain = 0
KSGV 141350Z 01004KT 02/M04 A2987 RMK A01 T00181035  RH  068%=      5-min Rain = 0
KSGV 141355Z 01004KT 02/M04 A2987 RMK A01 T00151035  RH  070%=      5-min Rain = 0
KSGV 141400Z 00004KT 01/M03 A2986 RMK A01 T00141034  RH  071%=      5-min Rain = 0
KSGV 141405Z 01004KT 01/M03 A2987 RMK A01 T00131034  RH  072%=      5-min Rain = 0
KSGV 141410Z 01004KT 02/M03 A2986 RMK A01 T00151032  RH  072%=      5-min Rain = 0
KSGV 141415Z 02003KT 02/M03 A2986 RMK A01 T00181031  RH  070%=      5-min Rain = 0
KSGV 141420Z 03002KT 02/M03 A2986 RMK A01 T00221031  RH  068%=      5-min Rain = 0
KSGV 141425Z 06001KT 03/M03 A2986 RMK A01 T00271029  RH  067%=      5-min Rain = 0
KSGV 141430Z 05001KT 03/M03 A2986 RMK A01 T00331026  RH  066%=      5-min Rain = 0
KSGV 141435Z 05001KT 04/M03 A2985 RMK A01 T00391028  RH  062%=      5-min Rain = 0
KSGV 141440Z 10001KT 05/M02 A2985 RMK A01 T00471024  RH  060%=      5-min Rain = 0
KSGV 141445Z 07002KT 06/M03 A2985 RMK A01 T00551027  RH  056%=      5-min Rain = 0
KSGV 141450Z 05003KT 05/M03 A2985 RMK A01 T00531028  RH  056%=      5-min Rain = 0
KSGV 141455Z 06002KT 05/M03 A2986 RMK A01 T00541026  RH  057%=      5-min Rain = 0
KSGV 141500Z 06002KT 06/M03 A2986 RMK A01 T00571025  RH  056%=      5-min Rain = 0
KSGV 141505Z 04004KT 06/M03 A2986 RMK A01 T00591025  RH  055%=      5-min Rain = 0
KSGV 141510Z 03002KT 06/M02 A2986 RMK A01 T00591023  RH  056%=      5-min Rain = 0
KSGV 141515Z 03004KT 06/M02 A2987 RMK A01 T00631021  RH  055%=      5-min Rain = 0
KSGV 141520Z 03003KT 07/M02 A2987 RMK A01 T00651021  RH  055%=      5-min Rain = 0
KSGV 141525Z 04002KT 07/M02 A2986 RMK A01 T00711018  RH  054%=      5-min Rain = 0
KSGV 141530Z 07003KT 08/M02 A2986 RMK A01 T00761018  RH  052%=      5-min Rain = 0
KSGV 141535Z 08004KT 08/M02 A2986 RMK A01 T00811018  RH  050%=      5-min Rain = 0
KSGV 141540Z 07004KT 08/M02 A2986 RMK A01 T00841017  RH  049%=      5-min Rain = 0
KSGV 141545Z 07005KT 09/M02 A2986 RMK A01 T00851015  RH  050%=      5-min Rain = 0
KSGV 141550Z 08003KT 09/M01 A2987 RMK A01 T00871014  RH  049%=      5-min Rain = 0
KSGV 141555Z 08005KT 09/M01 A2987 RMK A01 T00881014  RH  049%=      5-min Rain = 0
KSGV 141600Z 07005KT 09/M01 A2987 RMK A01 T00911012  RH  049%=      5-min Rain = 0
KSGV 141605Z 09004KT 10/M01 A2987 RMK A01 T00951011  RH  048%=      5-min Rain = 0
KSGV 141610Z 09005KT 10/M01 A2987 RMK A01 T00981012  RH  046%=      5-min Rain = 0
KSGV 141615Z 10004KT 10/M01 A2987 RMK A01 T01021010  RH  046%=      5-min Rain = 0
KSGV 141620Z 11006KT 10/M01 A2987 RMK A01 T01041011  RH  045%=      5-min Rain = 0
KSGV 141625Z 11005KT 11/M01 A2987 RMK A01 T01051010  RH  045%=      5-min Rain = 0
KSGV 141630Z 10006KT 11/M01 A2986 RMK A01 T01081010  RH  044%=      5-min Rain = 0
KSGV 141635Z 10006KT 11/M01 A2986 RMK A01 T01091010  RH  044%=      5-min Rain = 0
KSGV 141640Z 13006KT 11/M01 A2986 RMK A01 T01131009  RH  043%=      5-min Rain = 0
KSGV 141645Z 13007KT 11/M01 A2986 RMK A01 T01141010  RH  043%=      5-min Rain = 0
KSGV 141650Z 12006KT 12/M01 A2985 RMK A01 T01161009  RH  043%=      5-min Rain = 0
KSGV 141655Z 12007KT 12/M01 A2985 RMK A01 T01191008  RH  042%=      5-min Rain = 0
KSGV 141700Z 11005KT 12/M01 A2985 RMK A01 T01221007  RH  041%=      5-min Rain = 0
KSGV 141705Z 12004KT 13/M01 A2985 RMK A01 T01251006  RH  041%=      5-min Rain = 0
KSGV 141710Z 12005KT 13/M01 A2985 RMK A01 T01251008  RH  040%=      5-min Rain = 0
KSGV 141715Z 12005KT 13/M01 A2984 RMK A01 T01291007  RH  039%=      5-min Rain = 0
KSGV 141720Z 12004KT 13/M01 A2984 RMK A01 T01301008  RH  039%=      5-min Rain = 0
KSGV 141725Z 14004KT 14/M01 A2984 RMK A01 T01351007  RH  038%=      5-min Rain = 0
KSGV 141730Z 13003KT 14/M01 A2984 RMK A01 T01381007  RH  037%=      5-min Rain = 0
KSGV 141735Z 12003KT 14/M01 A2984 RMK A01 T01431008  RH  036%=      5-min Rain = 0
KSGV 141740Z 16004KT 15/M01 A2984 RMK A01 T01471007  RH  035%=      5-min Rain = 0
KSGV 141745Z 18003KT 15/M01 A2983 RMK A01 T01481009  RH  034%=      5-min Rain = 0
KSGV 141750Z 19005KT 15/M01 A2983 RMK A01 T01501008  RH  034%=      5-min Rain = 0
KSGV 141755Z 18005KT 15/M01 A2983 RMK A01 T01491007  RH  035%=      5-min Rain = 0
KSGV 141800Z 19004KT 15/M01 A2982 RMK A01 T01501007  RH  034%=      5-min Rain = 0
KSGV 141805Z 19005KT 15/M01 A2982 RMK A01 T01531007  RH  034%=      5-min Rain = 0
KSGV 141810Z 21004KT 15/M01 A2982 RMK A01 T01541007  RH  034%=      5-min Rain = 0
KSGV 141815Z 19004KT 15/M01 A2982 RMK A01 T01541006  RH  034%=      5-min Rain = 0
KSGV 141820Z 20005KT 16/M00 A2981 RMK A01 T01591003  RH  033%=      5-min Rain = 0
KSGV 141825Z 21005G10KT 16/M00 A2981 RMK A01 T01601003  RH  033%=      5-min Rain = 0
KSGV 141830Z 20006KT 17/00 A2981 RMK A01 T01670000  RH  033%=      5-min Rain = 0
KSGV 141835Z 22007KT 17/00 A298 RMK A01 T016800-0  RH  032%=      5-min Rain = 0
KSGV 141840Z 24008KT 17/00 A298 RMK A01 T01700003  RH  033%=      5-min Rain = 0
KSGV 141845Z 23008KT 17/00 A2979 RMK A01 T01690002  RH  033%=      5-min Rain = 0
KSGV 141850Z 22009KT 17/00 A2979 RMK A01 T01720003  RH  032%=      5-min Rain = 0
KSGV 141855Z 22009KT 17/00 A2979 RMK A01 T01740003  RH  032%=      5-min Rain = 0
KSGV 141900Z 21009KT 18/01 A2978 RMK A01 T01760005  RH  032%=      5-min Rain = 0
KSGV 141905Z 23008KT 18/01 A2978 RMK A01 T01780007  RH  032%=      5-min Rain = 0
KSGV 141910Z 24009KT 18/01 A2977 RMK A01 T01770008  RH  032%=      5-min Rain = 0
KSGV 141915Z 23008KT 18/01 A2977 RMK A01 T01820013  RH  033%=      5-min Rain = 0
KSGV 141920Z 22010G15KT 19/02 A2976 RMK A01 T01870015  RH  032%=      5-min Rain = 0
KSGV 141925Z 22010KT 19/02 A2976 RMK A01 T01900018  RH  032%=      5-min Rain = 0
KSGV 141930Z 22010KT 19/02 A2976 RMK A01 T01930018  RH  031%=      5-min Rain = 0
KSGV 141935Z 23010G15KT 19/02 A2976 RMK A01 T01930017  RH  031%=      5-min Rain = 0
KSGV 141940Z 23010KT 20/02 A2975 RMK A01 T01970018  RH  031%=      5-min Rain = 0
KSGV 141945Z 22011KT 20/02 A2975 RMK A01 T02010019  RH  030%=      5-min Rain = 0
KSGV 141950Z 23010KT 20/02 A2975 RMK A01 T02000019  RH  030%=      5-min Rain = 0
KSGV 141955Z 22010KT 20/02 A2974 RMK A01 T02020021  RH  031%=      5-min Rain = 0
KSGV 142000Z 21010KT 21/02 A2974 RMK A01 T02060021  RH  030%=      5-min Rain = 0
KSGV 142005Z 22010KT 21/02 A2974 RMK A01 T02060021  RH  030%=      5-min Rain = 0
KSGV 142010Z 22008G13KT 21/02 A2974 RMK A01 T02070020  RH  029%=      5-min Rain = 0
KSGV 142015Z 21010KT 21/02 A2974 RMK A01 T02130019  RH  028%=      5-min Rain = 0
KSGV 142020Z 22011G16KT 22/02 A2973 RMK A01 T02150019  RH  028%=      5-min Rain = 0
KSGV 142025Z 23010KT 22/02 A2973 RMK A01 T02170016  RH  027%=      5-min Rain = 0
KSGV 142030Z 24012G17KT 22/01 A2973 RMK A01 T02180014  RH  026%=      5-min Rain = 0
KSGV 142035Z 23012G20KT 22/01 A2973 RMK A01 T02210014  RH  026%=      5-min Rain = 0
KSGV 142040Z 22014G19KT 22/01 A2972 RMK A01 T02220013  RH  026%=      5-min Rain = 0
KSGV 142045Z 23011G17KT 22/01 A2972 RMK A01 T02200013  RH  026%=      5-min Rain = 0
KSGV 142050Z 23013KT 22/01 A2972 RMK A01 T02220012  RH  025%=      5-min Rain = 0
KSGV 142055Z 23013G18KT 22/01 A2972 RMK A01 T02200011  RH  025%=      5-min Rain = 0
KSGV 142100Z 24013G18KT 22/01 A2972 RMK A01 T02210010  RH  025%=      5-min Rain = 0
KSGV 142105Z 23013KT 22/01 A2972 RMK A01 T02240011  RH  025%=      5-min Rain = 0
KSGV 142110Z 22013KT 22/01 A2972 RMK A01 T02230009  RH  025%=      5-min Rain = 0
KSGV 142115Z 22013G19KT 23/01 A2972 RMK A01 T02250010  RH  024%=      5-min Rain = 0
KSGV 142120Z 22014G20KT 23/01 A2972 RMK A01 T02250008  RH  024%=      5-min Rain = 0
KSGV 142125Z 23014G20KT 22/01 A2971 RMK A01 T02230007  RH  024%=      5-min Rain = 0
KSGV 142130Z 23013KT 23/01 A2972 RMK A01 T02250007  RH  024%=      5-min Rain = 0
KSGV 142135Z 23014G19KT 23/01 A2972 RMK A01 T02250007  RH  024%=      5-min Rain = 0
KSGV 142140Z 24014G19KT 23/01 A2972 RMK A01 T02260006  RH  024%=      5-min Rain = 0
KSGV 142145Z 24015KT 22/00 A2972 RMK A01 T02240004  RH  024%=      5-min Rain = 0
KSGV 142150Z 24012KT 23/01 A2972 RMK A01 T02250006  RH  024%=      5-min Rain = 0
KSGV 142155Z 24015KT 23/00 A2972 RMK A01 T02260001  RH  023%=      5-min Rain = 0
KSGV 142200Z 25013KT 23/00 A2972 RMK A01 T02260002  RH  023%=      5-min Rain = 0
KSGV 142205Z 25011KT 23/00 A2972 RMK A01 T02260003  RH  023%=      5-min Rain = 0
KSGV 142210Z 24011KT 23/00 A2972 RMK A01 T02250004  RH  023%=      5-min Rain = 0
KSGV 142215Z 24011KT 23/01 A2971 RMK A01 T02260005  RH  023%=      5-min Rain = 0
KSGV 142220Z 25011KT 23/00 A2971 RMK A01 T02250004  RH  023%=      5-min Rain = 0
KSGV 142225Z 25011KT 22/00 A2971 RMK A01 T02240002  RH  023%=      5-min Rain = 0
KSGV 142230Z 25011KT 22/01 A2971 RMK A01 T02230005  RH  024%=      5-min Rain = 0
KSGV 142235Z 24009KT 22/01 A2971 RMK A01 T02230008  RH  024%=      5-min Rain = 0
KSGV 142240Z 23010KT 22/01 A2971 RMK A01 T02220009  RH  025%=      5-min Rain = 0
KSGV 142245Z 24010KT 22/01 A2971 RMK A01 T02210011  RH  025%=      5-min Rain = 0
KSGV 142250Z 24009KT 22/01 A2971 RMK A01 T02190012  RH  026%=      5-min Rain = 0
KSGV 142255Z 25010KT 22/00 A2972 RMK A01 T02170004  RH  025%=      5-min Rain = 0
KSGV 142300Z 25008KT 21/00 A2972 RMK A01 T02140004  RH  025%=      5-min Rain = 0
KSGV 142305Z 25007KT 21/01 A2972 RMK A01 T02120005  RH  026%=      5-min Rain = 0
KSGV 142310Z 25007KT 21/01 A2972 RMK A01 T02090007  RH  026%=      5-min Rain = 0
KSGV 142315Z 25006KT 21/01 A2972 RMK A01 T02050009  RH  027%=      5-min Rain = 0
KSGV 142320Z 25005KT 20/01 A2972 RMK A01 T02010011  RH  029%=      5-min Rain = 0
KSGV 142325Z 24005KT 20/01 A2972 RMK A01 T01950013  RH  030%=      5-min Rain = 0
KSGV 142330Z 24005KT 19/01 A2972 RMK A01 T01910012  RH  031%=      5-min Rain = 0
KSGV 142335Z 24005KT 19/01 A2972 RMK A01 T01870011  RH  031%=      5-min Rain = 0
KSGV 142340Z 23004KT 18/01 A2972 RMK A01 T01820008  RH  031%=      5-min Rain = 0
KSGV 142345Z 24004KT 18/01 A2972 RMK A01 T01790006  RH  031%=      5-min Rain = 0
KSGV 142350Z 23003KT 18/00 A2972 RMK A01 T01760004  RH  032%=      5-min Rain = 0
KSGV 142355Z 22003KT 17/01 A2972 RMK A01 T01740006  RH  033%=      5-min Rain = 0
KSGV 150000Z 20003KT 17/01 A2972 RMK A01 T01730005  RH  033%=      5-min Rain = 0
KSGV 150005Z 18004KT 17/01 A2972 RMK A01 T01700006  RH  033%=      5-min Rain = 0
KSGV 150010Z 17004KT 17/01 A2972 RMK A01 T01680006  RH  034%=      5-min Rain = 0
KSGV 150015Z 17004KT 17/01 A2972 RMK A01 T01680006  RH  034%=      5-min Rain = 0
KSGV 150020Z 17004KT 16/01 A2972 RMK A01 T01640006  RH  035%=      5-min Rain = 0
KSGV 150025Z 18004KT 16/01 A2972 RMK A01 T01590006  RH  036%=      5-min Rain = 0
KSGV 150030Z 18006KT 15/01 A2972 RMK A01 T01540005  RH  037%=      5-min Rain = 0
KSGV 150035Z 18007KT 14/00 A2972 RMK A01 T01410002  RH  039%=      5-min Rain = 0
KSGV 150040Z 18007KT 14/00 A2972 RMK A01 T01370003  RH  040%=      5-min Rain = 0
KSGV 150045Z 18007KT 13/00 A2972 RMK A01 T01340003  RH  041%=      5-min Rain = 0
KSGV 150050Z 18007KT 13/01 A2972 RMK A01 T01340005  RH  042%=      5-min Rain = 0
KSGV 150055Z 18006KT 14/01 A2972 RMK A01 T01380005  RH  041%=      5-min Rain = 0
KSGV 150100Z 18007KT 13/00 A2972 RMK A01 T01340003  RH  041%=      5-min Rain = 0
KSGV 150105Z 19007KT 13/00 A2972 RMK A01 T01290003  RH  043%=      5-min Rain = 0
KSGV 150110Z 20007KT 13/01 A2972 RMK A01 T01270005  RH  044%=      5-min Rain = 0
KSGV 150115Z 20008KT 13/01 A2972 RMK A01 T01250007  RH  045%=      5-min Rain = 0
KSGV 150120Z 20009KT 13/01 A2972 RMK A01 T01290008  RH  044%=      5-min Rain = 0
KSGV 150125Z 20010KT 14/01 A2972 RMK A01 T01360011  RH  043%=      5-min Rain = 0
KSGV 150130Z 20010KT 14/01 A2973 RMK A01 T01400012  RH  042%=      5-min Rain = 0
KSGV 150135Z 20010KT 14/01 A2973 RMK A01 T01380013  RH  043%=      5-min Rain = 0
KSGV 150140Z 18008KT 13/01 A2973 RMK A01 T01340011  RH  043%=      5-min Rain = 0
KSGV 150145Z 19008KT 13/01 A2973 RMK A01 T01260009  RH  045%=      5-min Rain = 0
KSGV 150150Z 20008KT 12/01 A2973 RMK A01 T01240009  RH  046%=      5-min Rain = 0
KSGV 150155Z 20008KT 12/01 A2973 RMK A01 T01220010  RH  047%=      5-min Rain = 0
KSGV 150200Z 20008KT 12/01 A2974 RMK A01 T01220010  RH  047%=      5-min Rain = 0
KSGV 150205Z 20008KT 13/01 A2974 RMK A01 T01250011  RH  046%=      5-min Rain = 0
KSGV 150210Z 20007KT 12/01 A2974 RMK A01 T01210009  RH  047%=      5-min Rain = 0
KSGV 150215Z 21007KT 12/01 A2974 RMK A01 T01150009  RH  049%=      5-min Rain = 0
KSGV 150220Z 21007KT 11/01 A2974 RMK A01 T01140010  RH  049%=      5-min Rain = 0
KSGV 150225Z 22008KT 12/01 A2974 RMK A01 T01150010  RH  049%=      5-min Rain = 0
KSGV 150230Z 22007KT 12/01 A2974 RMK A01 T01180012  RH  049%=      5-min Rain = 0
KSGV 150235Z 21007KT 12/01 A2974 RMK A01 T01160011  RH  049%=      5-min Rain = 0
KSGV 150240Z 21008KT 12/01 A2974 RMK A01 T01160011  RH  049%=      5-min Rain = 0
KSGV 150245Z 21009KT 12/01 A2974 RMK A01 T01200012  RH  048%=      5-min Rain = 0
KSGV 150250Z 21010KT 13/01 A2974 RMK A01 T01250012  RH  047%=      5-min Rain = 0
KSGV 150255Z 22010KT 13/01 A2974 RMK A01 T01290011  RH  045%=      5-min Rain = 0
KSGV 150300Z 22009KT 13/01 A2974 RMK A01 T01250011  RH  046%=      5-min Rain = 0
KSGV 150305Z 22008KT 12/01 A2973 RMK A01 T01210010  RH  047%=      5-min Rain = 0
KSGV 150310Z 22007KT 12/01 A2973 RMK A01 T01160010  RH  049%=      5-min Rain = 0
KSGV 150315Z 21008KT 11/01 A2973 RMK A01 T01120010  RH  050%=      5-min Rain = 0
KSGV 150320Z 21006KT 11/01 A2973 RMK A01 T01090009  RH  051%=      5-min Rain = 0
KSGV 150325Z 21005KT 10/01 A2973 RMK A01 T01040008  RH  052%=      5-min Rain = 0
KSGV 150330Z 21006KT 10/01 A2973 RMK A01 T00990008  RH  054%=      5-min Rain = 0
KSGV 150335Z 20007KT 09/01 A2973 RMK A01 T00940009  RH  056%=      5-min Rain = 0
KSGV 150340Z 20006KT 09/01 A2973 RMK A01 T00920009  RH  057%=      5-min Rain = 0
KSGV 150345Z 20007KT 09/01 A2973 RMK A01 T00920009  RH  057%=      5-min Rain = 0
KSGV 150350Z 20007KT 09/01 A2973 RMK A01 T00900009  RH  058%=      5-min Rain = 0
KSGV 150355Z 20006KT 09/01 A2973 RMK A01 T00890010  RH  058%=      5-min Rain = 0
KSGV 150400Z 20005KT 09/01 A2973 RMK A01 T00870009  RH  059%=      5-min Rain = 0
KSGV 150405Z 19006KT 08/01 A2973 RMK A01 T00830007  RH  059%=      5-min Rain = 0
KSGV 150410Z 19007KT 08/00 A2973 RMK A01 T00800004  RH  060%=      5-min Rain = 0
KSGV 150415Z 19007KT 08/00 A2973 RMK A01 T00760004  RH  061%=      5-min Rain = 0
KSGV 150420Z 20007KT 08/01 A2973 RMK A01 T00750005  RH  062%=      5-min Rain = 0
KSGV 150425Z 20007KT 08/01 A2973 RMK A01 T00810009  RH  061%=      5-min Rain = 0
KSGV 150430Z 21007KT 09/01 A2972 RMK A01 T00880009  RH  059%=      5-min Rain = 0
KSGV 150435Z 21006KT 09/01 A2972 RMK A01 T00870009  RH  059%=      5-min Rain = 0
KSGV 150440Z 20006KT 08/01 A2972 RMK A01 T00840008  RH  059%=      5-min Rain = 0
KSGV 150445Z 21005KT 08/01 A2972 RMK A01 T00810007  RH  060%=      5-min Rain = 0
KSGV 150450Z 22005KT 08/00 A2972 RMK A01 T00770004  RH  061%=      5-min Rain = 0
KSGV 150455Z 22005KT 07/00 A2972 RMK A01 T00730004  RH  062%=      5-min Rain = 0
KSGV 150500Z 21005KT 07/00 A2972 RMK A01 T00700004  RH  063%=      5-min Rain = 0
KSGV 150505Z 22005KT 07/00 A2972 RMK A01 T00670003  RH  064%=      5-min Rain = 0
KSGV 150510Z 24007KT 06/00 A2972 RMK A01 T00630002  RH  065%=      5-min Rain = 0
KSGV 150515Z 24007KT 06/00 A2972 RMK A01 T00630002  RH  066%=      5-min Rain = 0
KSGV 150520Z 24007KT 07/00 A2972 RMK A01 T00660003  RH  065%=      5-min Rain = 0
KSGV 150525Z 24008KT 07/01 A2972 RMK A01 T00700005  RH  064%=      5-min Rain = 0
KSGV 150530Z 24012KT 10/01 A2972 RMK A01 T00950013  RH  058%=      5-min Rain = 0
KSGV 150535Z 24014KT 12/01 A2972 RMK A01 T01170012  RH  049%=      5-min Rain = 0
KSGV 150540Z 24013KT 12/01 A2972 RMK A01 T01200010  RH  048%=      5-min Rain = 0
KSGV 150545Z 23013KT 12/01 A2972 RMK A01 T01190009  RH  048%=      5-min Rain = 0
KSGV 150550Z 23014KT 12/01 A2972 RMK A01 T01170009  RH  048%=      5-min Rain = 0
KSGV 150555Z 23013KT 12/01 A2972 RMK A01 T01150009  RH  049%=      5-min Rain = 0

Page generated in 0.016 seconds.